sensor_id;sensor_type;location;lat;lon;timestamp;pressure;altitude;pressure_sealevel;temperature;humidity
5812;BME280;2932;52.400;9.558;2023-03-26T00:01:01;99789.31;;;10.74;77.83
5812;BME280;2932;52.400;9.558;2023-03-26T00:03:30;99786.47;;;10.71;78.00
5812;BME280;2932;52.400;9.558;2023-03-26T00:06:43;99791.13;;;10.66;77.76
5812;BME280;2932;52.400;9.558;2023-03-26T00:08:51;99789.41;;;10.58;78.13
5812;BME280;2932;52.400;9.558;2023-03-26T00:11:18;99782.91;;;10.70;77.42
5812;BME280;2932;52.400;9.558;2023-03-26T00:13:45;99799.75;;;10.84;77.29
5812;BME280;2932;52.400;9.558;2023-03-26T00:16:13;99807.56;;;10.79;77.22
5812;BME280;2932;52.400;9.558;2023-03-26T00:18:40;99800.38;;;10.74;77.21
5812;BME280;2932;52.400;9.558;2023-03-26T00:21:07;99808.38;;;10.79;76.91
5812;BME280;2932;52.400;9.558;2023-03-26T00:23:35;99810.28;;;10.75;76.86
5812;BME280;2932;52.400;9.558;2023-03-26T00:26:04;99815.38;;;10.54;77.28
5812;BME280;2932;52.400;9.558;2023-03-26T00:28:36;99808.53;;;10.48;77.51
5812;BME280;2932;52.400;9.558;2023-03-26T00:31:04;99824.09;;;10.75;77.07
5812;BME280;2932;52.400;9.558;2023-03-26T00:33:30;99822.38;;;10.28;77.77
5812;BME280;2932;52.400;9.558;2023-03-26T00:35:58;99830.16;;;10.42;77.24
5812;BME280;2932;52.400;9.558;2023-03-26T00:38:26;99828.50;;;10.38;76.94
5812;BME280;2932;52.400;9.558;2023-03-26T00:40:52;99829.13;;;10.69;76.25
5812;BME280;2932;52.400;9.558;2023-03-26T00:43:21;99822.94;;;10.57;76.81
5812;BME280;2932;52.400;9.558;2023-03-26T00:45:51;99820.75;;;10.66;76.52
5812;BME280;2932;52.400;9.558;2023-03-26T00:48:18;99828.19;;;10.43;77.17
5812;BME280;2932;52.400;9.558;2023-03-26T00:50:45;99826.31;;;10.27;77.62
5812;BME280;2932;52.400;9.558;2023-03-26T00:53:12;99840.13;;;10.47;77.27
5812;BME280;2932;52.400;9.558;2023-03-26T00:55:42;99836.03;;;10.41;77.12
5812;BME280;2932;52.400;9.558;2023-03-26T00:58:08;99838.97;;;10.67;76.90
5812;BME280;2932;52.400;9.558;2023-03-26T01:00:49;99832.38;;;10.17;78.23
5812;BME280;2932;52.400;9.558;2023-03-26T01:03:16;99849.75;;;10.33;78.19
5812;BME280;2932;52.400;9.558;2023-03-26T01:05:46;99843.78;;;10.31;77.96
5812;BME280;2932;52.400;9.558;2023-03-26T01:11:10;99847.44;;;10.35;77.77
5812;BME280;2932;52.400;9.558;2023-03-26T01:13:42;99847.41;;;10.55;77.05
5812;BME280;2932;52.400;9.558;2023-03-26T01:16:17;99846.47;;;10.47;76.53
5812;BME280;2932;52.400;9.558;2023-03-26T01:18:45;99839.06;;;10.32;76.31
5812;BME280;2932;52.400;9.558;2023-03-26T01:21:10;99839.06;;;10.32;76.58
5812;BME280;2932;52.400;9.558;2023-03-26T01:28:54;99847.09;;;10.79;75.36
5812;BME280;2932;52.400;9.558;2023-03-26T01:31:29;99848.06;;;10.48;75.65
5812;BME280;2932;52.400;9.558;2023-03-26T01:42:39;99837.06;;;10.52;73.79
5812;BME280;2932;52.400;9.558;2023-03-26T01:45:10;99837.22;;;10.59;73.25
5812;BME280;2932;52.400;9.558;2023-03-26T01:47:39;99834.69;;;10.31;73.56
5812;BME280;2932;52.400;9.558;2023-03-26T01:50:05;99833.84;;;10.11;73.60
5812;BME280;2932;52.400;9.558;2023-03-26T01:52:31;99835.56;;;10.35;73.19
5812;BME280;2932;52.400;9.558;2023-03-26T01:54:56;99839.91;;;10.01;73.61
5812;BME280;2932;52.400;9.558;2023-03-26T01:57:37;99847.66;;;10.11;73.28
5812;BME280;2932;52.400;9.558;2023-03-26T02:05:30;99831.09;;;10.50;72.10
5812;BME280;2932;52.400;9.558;2023-03-26T02:10:36;99831.84;;;9.92;73.32
5812;BME280;2932;52.400;9.558;2023-03-26T02:13:04;99838.25;;;10.31;72.67
5812;BME280;2932;52.400;9.558;2023-03-26T02:15:30;99837.31;;;10.24;72.97
5812;BME280;2932;52.400;9.558;2023-03-26T02:17:56;99832.72;;;10.31;72.55
5812;BME280;2932;52.400;9.558;2023-03-26T02:20:24;99833.28;;;10.21;73.44
5812;BME280;2932;52.400;9.558;2023-03-26T02:22:54;99826.09;;;10.01;73.89
5812;BME280;2932;52.400;9.558;2023-03-26T02:25:20;99837.75;;;10.10;73.81
5812;BME280;2932;52.400;9.558;2023-03-26T02:27:46;99834.47;;;10.04;73.80
5812;BME280;2932;52.400;9.558;2023-03-26T02:30:16;99841.59;;;9.86;74.69
5812;BME280;2932;52.400;9.558;2023-03-26T02:32:42;99833.09;;;10.14;73.89
5812;BME280;2932;52.400;9.558;2023-03-26T02:35:08;99839.63;;;10.06;74.21
5812;BME280;2932;52.400;9.558;2023-03-26T02:37:34;99832.06;;;10.03;74.30
5812;BME280;2932;52.400;9.558;2023-03-26T02:39:59;99837.59;;;10.38;73.41
5812;BME280;2932;52.400;9.558;2023-03-26T02:42:25;99835.63;;;10.58;73.12
5812;BME280;2932;52.400;9.558;2023-03-26T02:44:51;99834.66;;;10.69;72.86
5812;BME280;2932;52.400;9.558;2023-03-26T02:47:17;99825.78;;;10.60;72.73
5812;BME280;2932;52.400;9.558;2023-03-26T02:49:42;99830.44;;;10.18;74.46
5812;BME280;2932;52.400;9.558;2023-03-26T02:52:09;99833.47;;;10.13;74.92
5812;BME280;2932;52.400;9.558;2023-03-26T02:54:34;99830.88;;;10.20;74.95
5812;BME280;2932;52.400;9.558;2023-03-26T02:57:00;99832.38;;;10.17;74.99
5812;BME280;2932;52.400;9.558;2023-03-26T02:59:25;99822.81;;;10.50;74.41
5812;BME280;2932;52.400;9.558;2023-03-26T03:01:51;99826.31;;;10.27;74.67
5812;BME280;2932;52.400;9.558;2023-03-26T03:04:17;99824.31;;;10.09;75.63
5812;BME280;2932;52.400;9.558;2023-03-26T03:06:42;99817.31;;;9.95;75.71
5812;BME280;2932;52.400;9.558;2023-03-26T03:09:10;99823.50;;;10.08;75.32
5812;BME280;2932;52.400;9.558;2023-03-26T03:11:37;99808.22;;;10.30;74.52
5812;BME280;2932;52.400;9.558;2023-03-26T03:14:02;99812.16;;;9.94;74.53
5812;BME280;2932;52.400;9.558;2023-03-26T03:16:28;99807.50;;;10.17;73.60
5812;BME280;2932;52.400;9.558;2023-03-26T03:18:54;99797.09;;;10.11;72.44
5812;BME280;2932;52.400;9.558;2023-03-26T03:21:25;99794.44;;;10.33;71.12
5812;BME280;2932;52.400;9.558;2023-03-26T03:23:51;99793.88;;;10.24;70.42
5812;BME280;2932;52.400;9.558;2023-03-26T03:26:19;99793.53;;;10.10;69.38
5812;BME280;2932;52.400;9.558;2023-03-26T03:28:51;99795.03;;;10.23;68.46
5812;BME280;2932;52.400;9.558;2023-03-26T03:31:17;99790.22;;;10.40;68.73
5812;BME280;2932;52.400;9.558;2023-03-26T03:33:43;99789.16;;;10.09;68.41
5812;BME280;2932;52.400;9.558;2023-03-26T03:36:11;99788.81;;;10.11;68.60
5812;BME280;2932;52.400;9.558;2023-03-26T03:38:38;99808.00;;;9.84;69.26
5812;BME280;2932;52.400;9.558;2023-03-26T03:41:05;99784.84;;;10.27;68.63
5812;BME280;2932;52.400;9.558;2023-03-26T03:43:30;99786.81;;;10.27;69.19
5812;BME280;2932;52.400;9.558;2023-03-26T03:45:57;99795.00;;;10.43;69.46
5812;BME280;2932;52.400;9.558;2023-03-26T03:48:22;99783.16;;;10.42;69.83
5812;BME280;2932;52.400;9.558;2023-03-26T03:50:48;99790.50;;;10.54;69.85
5812;BME280;2932;52.400;9.558;2023-03-26T03:53:13;99784.09;;;10.50;69.92
5812;BME280;2932;52.400;9.558;2023-03-26T03:55:41;99789.88;;;10.22;71.28
5812;BME280;2932;52.400;9.558;2023-03-26T03:58:06;99794.25;;;10.07;72.64
5812;BME280;2932;52.400;9.558;2023-03-26T04:00:33;99797.31;;;10.02;73.15
5812;BME280;2932;52.400;9.558;2023-03-26T04:03:03;99793.75;;;10.01;73.34
5812;BME280;2932;52.400;9.558;2023-03-26T04:05:30;99792.09;;;9.97;74.09
5812;BME280;2932;52.400;9.558;2023-03-26T04:07:56;99795.03;;;10.23;73.27
5812;BME280;2932;52.400;9.558;2023-03-26T04:10:21;99796.28;;;10.26;73.15
5812;BME280;2932;52.400;9.558;2023-03-26T04:12:46;99799.09;;;10.29;73.06
5812;BME280;2932;52.400;9.558;2023-03-26T04:15:12;99807.63;;;10.21;73.58
5812;BME280;2932;52.400;9.558;2023-03-26T04:17:37;99795.03;;;10.23;73.69
5812;BME280;2932;52.400;9.558;2023-03-26T04:20:08;99800.69;;;9.76;75.17
5812;BME280;2932;52.400;9.558;2023-03-26T04:22:34;99807.28;;;9.87;75.38
5812;BME280;2932;52.400;9.558;2023-03-26T04:25:00;99802.09;;;9.86;75.91
5812;BME280;2932;52.400;9.558;2023-03-26T04:27:28;99810.28;;;9.98;75.63
5812;BME280;2932;52.400;9.558;2023-03-26T04:29:56;99811.00;;;9.95;75.79
5812;BME280;2932;52.400;9.558;2023-03-26T04:32:25;99801.94;;;10.33;75.40
5812;BME280;2932;52.400;9.558;2023-03-26T04:34:53;99810.28;;;9.98;75.96
5812;BME280;2932;52.400;9.558;2023-03-26T04:37:27;99808.41;;;10.21;75.68
5812;BME280;2932;52.400;9.558;2023-03-26T04:39:56;99805.25;;;10.42;75.28
5812;BME280;2932;52.400;9.558;2023-03-26T04:42:21;99805.22;;;10.39;75.22
5812;BME280;2932;52.400;9.558;2023-03-26T04:44:47;99806.59;;;10.29;75.53
5812;BME280;2932;52.400;9.558;2023-03-26T04:47:16;99805.31;;;10.07;76.39
5812;BME280;2932;52.400;9.558;2023-03-26T04:49:42;99809.97;;;10.03;76.38
5812;BME280;2932;52.400;9.558;2023-03-26T04:52:10;99800.50;;;10.04;76.06
5812;BME280;2932;52.400;9.558;2023-03-26T04:54:35;99799.06;;;10.10;75.70
5812;BME280;2932;52.400;9.558;2023-03-26T04:57:07;99795.88;;;9.89;76.16
5812;BME280;2932;52.400;9.558;2023-03-26T04:59:33;99788.00;;;10.10;75.87
5812;BME280;2932;52.400;9.558;2023-03-26T05:02:00;99784.84;;;9.73;76.36
5812;BME280;2932;52.400;9.558;2023-03-26T05:04:26;99787.81;;;9.99;75.79
5812;BME280;2932;52.400;9.558;2023-03-26T05:06:55;99782.44;;;10.26;75.46
5812;BME280;2932;52.400;9.558;2023-03-26T05:09:24;99794.09;;;10.00;76.01
5812;BME280;2932;52.400;9.558;2023-03-26T05:11:50;99782.91;;;10.12;75.85
5812;BME280;2932;52.400;9.558;2023-03-26T05:14:16;99781.31;;;10.50;75.37
5812;BME280;2932;52.400;9.558;2023-03-26T05:16:43;99777.19;;;10.40;75.03
5812;BME280;2932;52.400;9.558;2023-03-26T05:19:10;99787.63;;;10.69;74.71
5812;BME280;2932;52.400;9.558;2023-03-26T05:21:36;99786.97;;;10.76;73.98
5812;BME280;2932;52.400;9.558;2023-03-26T05:24:01;99789.25;;;10.51;74.78
5812;BME280;2932;52.400;9.558;2023-03-26T05:26:27;99793.31;;;10.77;73.98
5812;BME280;2932;52.400;9.558;2023-03-26T05:28:53;99792.53;;;10.80;74.21
5812;BME280;2932;52.400;9.558;2023-03-26T05:31:19;99790.84;;;10.72;74.64
5812;BME280;2932;52.400;9.558;2023-03-26T05:33:45;99786.41;;;10.48;75.43
5812;BME280;2932;52.400;9.558;2023-03-26T05:36:11;99787.09;;;10.22;76.50
5812;BME280;2932;52.400;9.558;2023-03-26T05:38:38;99790.63;;;10.03;76.29
5812;BME280;2932;52.400;9.558;2023-03-26T05:41:05;99790.34;;;10.08;76.87
5812;BME280;2932;52.400;9.558;2023-03-26T05:43:32;99783.84;;;10.00;76.66
5812;BME280;2932;52.400;9.558;2023-03-26T05:45:57;99784.38;;;10.64;75.07
5812;BME280;2932;52.400;9.558;2023-03-26T05:48:24;99775.56;;;10.58;74.99
5812;BME280;2932;52.400;9.558;2023-03-26T05:50:51;99791.88;;;10.63;74.98
5812;BME280;2932;52.400;9.558;2023-03-26T05:53:17;99787.06;;;10.83;74.09
5812;BME280;2932;52.400;9.558;2023-03-26T05:55:44;99784.75;;;10.85;74.14
5812;BME280;2932;52.400;9.558;2023-03-26T05:58:11;99782.84;;;11.12;73.24
5812;BME280;2932;52.400;9.558;2023-03-26T06:00:37;99778.47;;;10.88;74.13
5812;BME280;2932;52.400;9.558;2023-03-26T06:03:03;99771.13;;;10.54;74.74
5812;BME280;2932;52.400;9.558;2023-03-26T06:05:32;99769.97;;;10.55;74.81
5812;BME280;2932;52.400;9.558;2023-03-26T06:08:01;99775.56;;;10.81;74.54
5812;BME280;2932;52.400;9.558;2023-03-26T06:10:26;99777.00;;;10.72;74.13
5812;BME280;2932;52.400;9.558;2023-03-26T06:12:52;99771.59;;;11.01;73.67
5812;BME280;2932;52.400;9.558;2023-03-26T06:15:17;99769.00;;;10.89;73.52
5812;BME280;2932;52.400;9.558;2023-03-26T06:17:42;99768.31;;;11.19;72.62
5812;BME280;2932;52.400;9.558;2023-03-26T06:20:08;99765.94;;;11.17;72.56
5812;BME280;2932;52.400;9.558;2023-03-26T06:22:33;99766.94;;;11.32;72.08
5812;BME280;2932;52.400;9.558;2023-03-26T06:24:59;99761.28;;;11.25;71.94
5812;BME280;2932;52.400;9.558;2023-03-26T06:27:24;99759.47;;;11.36;72.30
5812;BME280;2932;52.400;9.558;2023-03-26T06:29:50;99759.22;;;10.73;72.84
5812;BME280;2932;52.400;9.558;2023-03-26T06:32:15;99753.38;;;10.55;73.95
5812;BME280;2932;52.400;9.558;2023-03-26T06:34:40;99763.59;;;10.74;73.88
5812;BME280;2932;52.400;9.558;2023-03-26T06:37:06;99759.25;;;10.53;74.18
5812;BME280;2932;52.400;9.558;2023-03-26T06:39:31;99759.97;;;10.92;73.74
5812;BME280;2932;52.400;9.558;2023-03-26T06:41:57;99760.47;;;11.24;72.78
5812;BME280;2932;52.400;9.558;2023-03-26T06:44:22;99751.34;;;10.97;72.63
5812;BME280;2932;52.400;9.558;2023-03-26T06:46:47;99756.28;;;11.08;72.39
5812;BME280;2932;52.400;9.558;2023-03-26T06:49:13;99755.28;;;10.96;72.72
5812;BME280;2932;52.400;9.558;2023-03-26T06:51:38;99757.19;;;10.92;72.53
5812;BME280;2932;52.400;9.558;2023-03-26T06:54:05;99753.56;;;10.88;72.51
5812;BME280;2932;52.400;9.558;2023-03-26T06:56:30;99751.09;;;11.06;72.71
5812;BME280;2932;52.400;9.558;2023-03-26T06:58:55;99756.28;;;11.08;71.97
5812;BME280;2932;52.400;9.558;2023-03-26T07:01:21;99760.03;;;11.19;71.97
5812;BME280;2932;52.400;9.558;2023-03-26T07:03:47;99767.91;;;11.17;72.01
5812;BME280;2932;52.400;9.558;2023-03-26T07:06:12;99755.78;;;11.02;72.61
5812;BME280;2932;52.400;9.558;2023-03-26T07:08:37;99756.63;;;11.55;71.45
5812;BME280;2932;52.400;9.558;2023-03-26T07:11:03;99745.38;;;11.75;71.23
5812;BME280;2932;52.400;9.558;2023-03-26T07:13:28;99747.56;;;11.58;70.99
5812;BME280;2932;52.400;9.558;2023-03-26T07:15:53;99754.78;;;11.66;70.88
5812;BME280;2932;52.400;9.558;2023-03-26T07:18:19;99745.44;;;12.08;70.17
5812;BME280;2932;52.400;9.558;2023-03-26T07:20:44;99738.03;;;11.56;69.94
5812;BME280;2932;52.400;9.558;2023-03-26T07:23:10;99734.25;;;11.15;70.26
5812;BME280;2932;52.400;9.558;2023-03-26T07:25:36;99729.66;;;11.52;70.60
5812;BME280;2932;52.400;9.558;2023-03-26T07:30:49;99736.19;;;11.93;68.66
5812;BME280;2932;52.400;9.558;2023-03-26T07:36:13;99721.94;;;11.68;69.14
5812;BME280;2932;52.400;9.558;2023-03-26T07:41:51;99719.97;;;11.39;69.00
5812;BME280;2932;52.400;9.558;2023-03-26T07:46:58;99716.59;;;11.53;68.26
5812;BME280;2932;52.400;9.558;2023-03-26T07:49:25;99715.06;;;11.55;67.88
5812;BME280;2932;52.400;9.558;2023-03-26T07:51:51;99716.44;;;11.98;67.16
5812;BME280;2932;52.400;9.558;2023-03-26T07:54:16;99715.84;;;12.53;66.96
5812;BME280;2932;52.400;9.558;2023-03-26T07:56:51;99710.75;;;12.21;66.26
5812;BME280;2932;52.400;9.558;2023-03-26T07:59:51;99710.81;;;12.65;64.62
5812;BME280;2932;52.400;9.558;2023-03-26T08:02:43;99711.84;;;12.50;64.92
5812;BME280;2932;52.400;9.558;2023-03-26T08:08:18;99709.69;;;12.74;64.33
5812;BME280;2932;52.400;9.558;2023-03-26T08:14:10;99706.84;;;13.14;62.88
5812;BME280;2932;52.400;9.558;2023-03-26T08:16:27;99713.97;;;13.74;61.59
5812;BME280;2932;52.400;9.558;2023-03-26T08:22:01;99709.06;;;14.36;59.59
5812;BME280;2932;52.400;9.558;2023-03-26T08:27:30;99713.91;;;14.85;57.90
5812;BME280;2932;52.400;9.558;2023-03-26T08:32:37;99711.53;;;14.94;57.59
5812;BME280;2932;52.400;9.558;2023-03-26T08:35:03;99705.94;;;15.30;57.54
5812;BME280;2932;52.400;9.558;2023-03-26T08:37:29;99716.31;;;15.05;57.33
5812;BME280;2932;52.400;9.558;2023-03-26T08:39:54;99713.94;;;15.10;57.60
5812;BME280;2932;52.400;9.558;2023-03-26T08:56:00;99711.09;;;15.39;56.74
5812;BME280;2932;52.400;9.558;2023-03-26T08:58:59;99703.91;;;15.48;56.27
5812;BME280;2932;52.400;9.558;2023-03-26T09:26:17;99698.34;;;15.38;58.39
5812;BME280;2932;52.400;9.558;2023-03-26T09:37:16;99697.97;;;15.25;58.59
5812;BME280;2932;52.400;9.558;2023-03-26T09:53:32;99698.81;;;15.15;59.17
5812;BME280;2932;52.400;9.558;2023-03-26T09:56:12;99696.38;;;15.34;58.79
5812;BME280;2932;52.400;9.558;2023-03-26T10:10:23;99689.19;;;15.37;57.99
5812;BME280;2932;52.400;9.558;2023-03-26T10:12:56;99695.56;;;15.41;57.73
5812;BME280;2932;52.400;9.558;2023-03-26T10:15:35;99685.22;;;15.38;57.46
5812;BME280;2932;52.400;9.558;2023-03-26T10:26:47;99673.66;;;15.47;57.03
5812;BME280;2932;52.400;9.558;2023-03-26T10:40:50;99661.81;;;16.19;54.92
5812;BME280;2932;52.400;9.558;2023-03-26T10:51:07;99662.03;;;17.02;53.57
5812;BME280;2932;52.400;9.558;2023-03-26T10:56:46;99658.44;;;17.80;52.57
5812;BME280;2932;52.400;9.558;2023-03-26T10:59:14;99649.00;;;18.27;52.09
5812;BME280;2932;52.400;9.558;2023-03-26T11:10:24;99652.19;;;18.53;50.58
5812;BME280;2932;52.400;9.558;2023-03-26T11:18:17;99653.63;;;19.35;49.42
5812;BME280;2932;52.400;9.558;2023-03-26T11:28:53;99642.75;;;18.43;49.51
5812;BME280;2932;52.400;9.558;2023-03-26T11:31:23;99641.22;;;18.65;50.20
5812;BME280;2932;52.400;9.558;2023-03-26T11:33:56;99636.41;;;18.89;49.57
5812;BME280;2932;52.400;9.558;2023-03-26T11:36:27;99632.34;;;18.94;49.60
5812;BME280;2932;52.400;9.558;2023-03-26T11:38:57;99646.19;;;18.54;49.87
5812;BME280;2932;52.400;9.558;2023-03-26T11:41:26;99638.19;;;18.53;49.35
5812;BME280;2932;52.400;9.558;2023-03-26T11:44:02;99642.13;;;18.32;49.39
5812;BME280;2932;52.400;9.558;2023-03-26T11:46:30;99643.94;;;17.88;50.03
5812;BME280;2932;52.400;9.558;2023-03-26T11:49:02;99642.22;;;17.98;50.95
5812;BME280;2932;52.400;9.558;2023-03-26T11:51:39;99640.59;;;18.27;50.88
5812;BME280;2932;52.400;9.558;2023-03-26T11:54:06;99640.44;;;18.38;50.40
5812;BME280;2932;52.400;9.558;2023-03-26T11:56:53;99641.84;;;18.23;50.63
5812;BME280;2932;52.400;9.558;2023-03-26T12:04:27;99637.59;;;18.11;50.89
5812;BME280;2932;52.400;9.558;2023-03-26T12:09:31;99625.69;;;17.77;51.70
5812;BME280;2932;52.400;9.558;2023-03-26T12:12:02;99631.84;;;17.61;52.35
5812;BME280;2932;52.400;9.558;2023-03-26T12:14:31;99622.72;;;17.57;52.87
5812;BME280;2932;52.400;9.558;2023-03-26T12:17:04;99635.28;;;17.42;52.93
5812;BME280;2932;52.400;9.558;2023-03-26T12:19:37;99632.75;;;17.17;53.68
5812;BME280;2932;52.400;9.558;2023-03-26T12:22:04;99636.41;;;17.10;53.58
5812;BME280;2932;52.400;9.558;2023-03-26T12:24:32;99630.94;;;16.96;53.41
5812;BME280;2932;52.400;9.558;2023-03-26T12:29:52;99629.59;;;17.11;54.09
5812;BME280;2932;52.400;9.558;2023-03-26T12:32:24;99635.97;;;17.15;53.19
5812;BME280;2932;52.400;9.558;2023-03-26T12:34:56;99628.59;;;16.91;53.77
5812;BME280;2932;52.400;9.558;2023-03-26T12:37:39;99625.75;;;16.94;53.93
5812;BME280;2932;52.400;9.558;2023-03-26T12:42:51;99622.44;;;16.62;54.74
5812;BME280;2932;52.400;9.558;2023-03-26T12:45:22;99624.16;;;16.45;54.62
5812;BME280;2932;52.400;9.558;2023-03-26T12:47:48;99630.25;;;16.29;55.25
5812;BME280;2932;52.400;9.558;2023-03-26T12:50:15;99625.16;;;16.17;56.30
5812;BME280;2932;52.400;9.558;2023-03-26T12:53:33;99629.75;;;16.42;55.80
5812;BME280;2932;52.400;9.558;2023-03-26T12:55:58;99630.38;;;16.71;54.80
5812;BME280;2932;52.400;9.558;2023-03-26T13:01:27;99629.13;;;16.79;54.19
5812;BME280;2932;52.400;9.558;2023-03-26T13:06:44;99630.03;;;16.58;54.55
5812;BME280;2932;52.400;9.558;2023-03-26T13:10:01;99627.94;;;16.17;55.57
5812;BME280;2932;52.400;9.558;2023-03-26T13:12:51;99625.63;;;16.01;56.12
5812;BME280;2932;52.400;9.558;2023-03-26T13:21:10;99619.81;;;15.71;56.58
5812;BME280;2932;52.400;9.558;2023-03-26T13:23:48;99622.56;;;15.78;56.24
5812;BME280;2932;52.400;9.558;2023-03-26T13:28:58;99615.50;;;15.56;56.47
5812;BME280;2932;52.400;9.558;2023-03-26T13:31:53;99618.94;;;15.92;57.43
5812;BME280;2932;52.400;9.558;2023-03-26T13:34:37;99623.66;;;17.06;61.64
5812;BME280;2932;52.400;9.558;2023-03-26T13:37:18;99615.09;;;16.82;57.04
5812;BME280;2932;52.400;9.558;2023-03-26T13:47:15;99606.34;;;16.28;55.41
5812;BME280;2932;52.400;9.558;2023-03-26T13:49:46;99609.28;;;16.00;55.01
5812;BME280;2932;52.400;9.558;2023-03-26T13:52:29;99608.84;;;16.12;55.23
5812;BME280;2932;52.400;9.558;2023-03-26T13:55:18;99612.69;;;16.36;55.21
5812;BME280;2932;52.400;9.558;2023-03-26T13:58:25;99612.28;;;16.34;53.83
5812;BME280;2932;52.400;9.558;2023-03-26T14:01:17;99617.09;;;16.30;53.96
5812;BME280;2932;52.400;9.558;2023-03-26T14:03:54;99611.81;;;16.43;53.75
5812;BME280;2932;52.400;9.558;2023-03-26T14:06:27;99615.69;;;16.59;53.86
5812;BME280;2932;52.400;9.558;2023-03-26T14:08:59;99612.22;;;16.41;53.86
5812;BME280;2932;52.400;9.558;2023-03-26T14:14:19;99623.22;;;16.04;53.66
5812;BME280;2932;52.400;9.558;2023-03-26T14:16:55;99621.25;;;16.00;54.34
5812;BME280;2932;52.400;9.558;2023-03-26T14:19:36;99625.75;;;15.84;54.16
5812;BME280;2932;52.400;9.558;2023-03-26T14:27:32;99633.81;;;15.50;54.80
5812;BME280;2932;52.400;9.558;2023-03-26T14:30:41;99632.25;;;15.49;54.41
5812;BME280;2932;52.400;9.558;2023-03-26T14:34:14;99622.28;;;15.51;53.46
5812;BME280;2932;52.400;9.558;2023-03-26T14:39:13;99625.38;;;15.78;53.30
5812;BME280;2932;52.400;9.558;2023-03-26T14:41:49;99637.72;;;15.74;53.21
5812;BME280;2932;52.400;9.558;2023-03-26T14:47:00;99623.59;;;16.09;52.32
5812;BME280;2932;52.400;9.558;2023-03-26T14:52:30;99630.88;;;15.92;52.55
5812;BME280;2932;52.400;9.558;2023-03-26T14:55:02;99626.59;;;15.66;53.34
5812;BME280;2932;52.400;9.558;2023-03-26T15:31:10;99629.47;;;15.38;52.57
5812;BME280;2932;52.400;9.558;2023-03-26T15:34:46;99638.22;;;15.44;52.86
5812;BME280;2932;52.400;9.558;2023-03-26T15:40:24;99639.03;;;15.33;53.38
5812;BME280;2932;52.400;9.558;2023-03-26T15:43:10;99636.72;;;15.07;53.82
5812;BME280;2932;52.400;9.558;2023-03-26T15:58:39;99652.63;;;14.50;54.31
5812;BME280;2932;52.400;9.558;2023-03-26T16:04:54;99655.84;;;14.59;54.11
5812;BME280;2932;52.400;9.558;2023-03-26T16:15:37;99661.78;;;14.57;54.67
5812;BME280;2932;52.400;9.558;2023-03-26T16:28:35;99669.22;;;14.07;53.94
5812;BME280;2932;52.400;9.558;2023-03-26T16:33:43;99669.63;;;14.06;53.32
5812;BME280;2932;52.400;9.558;2023-03-26T16:36:31;99676.22;;;13.69;53.67
5812;BME280;2932;52.400;9.558;2023-03-26T16:44:30;99682.81;;;14.30;52.89
5812;BME280;2932;52.400;9.558;2023-03-26T16:52:24;99682.66;;;13.84;52.73
5812;BME280;2932;52.400;9.558;2023-03-26T16:55:05;99685.50;;;14.01;52.81
5812;BME280;2932;52.400;9.558;2023-03-26T16:57:46;99693.88;;;14.09;52.62
5812;BME280;2932;52.400;9.558;2023-03-26T17:00:26;99702.56;;;14.00;52.25
5812;BME280;2932;52.400;9.558;2023-03-26T17:03:15;99705.81;;;14.20;52.02
5812;BME280;2932;52.400;9.558;2023-03-26T17:23:53;99738.34;;;13.98;51.99
5812;BME280;2932;52.400;9.558;2023-03-26T17:29:31;99740.78;;;14.14;51.77
5812;BME280;2932;52.400;9.558;2023-03-26T17:32:12;99746.28;;;14.03;52.05
5812;BME280;2932;52.400;9.558;2023-03-26T17:42:24;99760.50;;;13.25;51.48
5812;BME280;2932;52.400;9.558;2023-03-26T17:44:55;99771.06;;;13.60;51.55
5812;BME280;2932;52.400;9.558;2023-03-26T17:49:54;99775.47;;;13.10;52.25
5812;BME280;2932;52.400;9.558;2023-03-26T17:52:55;99782.50;;;13.00;52.46
5812;BME280;2932;52.400;9.558;2023-03-26T17:55:26;99781.50;;;13.16;51.48
5812;BME280;2932;52.400;9.558;2023-03-26T17:57:59;99788.91;;;13.05;51.54
5812;BME280;2932;52.400;9.558;2023-03-26T18:00:31;99791.22;;;13.43;50.74
5812;BME280;2932;52.400;9.558;2023-03-26T18:03:26;99791.41;;;12.76;51.94
5812;BME280;2932;52.400;9.558;2023-03-26T18:06:02;99797.94;;;12.98;51.95
5812;BME280;2932;52.400;9.558;2023-03-26T18:09:08;99800.28;;;12.92;51.60
5812;BME280;2932;52.400;9.558;2023-03-26T18:14:41;99815.88;;;13.04;51.73
5812;BME280;2932;52.400;9.558;2023-03-26T18:17:10;99818.63;;;13.04;51.42
5812;BME280;2932;52.400;9.558;2023-03-26T18:19:51;99832.34;;;12.86;52.00
5812;BME280;2932;52.400;9.558;2023-03-26T18:22:23;99824.75;;;12.83;51.47
5812;BME280;2932;52.400;9.558;2023-03-26T18:24:50;99838.22;;;12.78;51.74
5812;BME280;2932;52.400;9.558;2023-03-26T18:27:21;99840.91;;;12.71;51.89
5812;BME280;2932;52.400;9.558;2023-03-26T18:32:22;99845.44;;;12.52;51.69
5812;BME280;2932;52.400;9.558;2023-03-26T18:34:57;99850.75;;;12.64;51.63
5812;BME280;2932;52.400;9.558;2023-03-26T18:37:28;99853.69;;;12.79;51.94
5812;BME280;2932;52.400;9.558;2023-03-26T18:40:12;99854.53;;;12.86;51.43
5812;BME280;2932;52.400;9.558;2023-03-26T18:42:43;99865.94;;;12.74;51.83
5812;BME280;2932;52.400;9.558;2023-03-26T18:47:47;99864.00;;;12.78;51.91
5812;BME280;2932;52.400;9.558;2023-03-26T18:50:17;99875.91;;;12.79;51.72
5812;BME280;2932;52.400;9.558;2023-03-26T18:52:46;99873.50;;;12.77;51.96
5812;BME280;2932;52.400;9.558;2023-03-26T18:55:12;99876.22;;;12.74;51.93
5812;BME280;2932;52.400;9.558;2023-03-26T18:57:40;99881.88;;;12.51;52.00
5812;BME280;2932;52.400;9.558;2023-03-26T19:00:26;99894.16;;;12.50;52.19
5812;BME280;2932;52.400;9.558;2023-03-26T19:03:21;99900.25;;;12.29;52.48
5812;BME280;2932;52.400;9.558;2023-03-26T19:05:55;99893.16;;;12.31;52.52
5812;BME280;2932;52.400;9.558;2023-03-26T19:08:22;99898.53;;;12.21;52.40
5812;BME280;2932;52.400;9.558;2023-03-26T19:10:49;99902.09;;;12.51;52.22
5812;BME280;2932;52.400;9.558;2023-03-26T19:13:15;99908.13;;;12.27;52.81
5812;BME280;2932;52.400;9.558;2023-03-26T19:15:44;99915.81;;;12.37;52.61
5812;BME280;2932;52.400;9.558;2023-03-26T19:18:23;99914.91;;;12.29;52.42
5812;BME280;2932;52.400;9.558;2023-03-26T19:20:52;99925.03;;;11.92;52.80
5812;BME280;2932;52.400;9.558;2023-03-26T19:23:20;99927.50;;;11.74;53.47
5812;BME280;2932;52.400;9.558;2023-03-26T19:25:49;99924.56;;;11.86;53.28
5812;BME280;2932;52.400;9.558;2023-03-26T19:28:37;99935.28;;;11.88;53.13
5812;BME280;2932;52.400;9.558;2023-03-26T19:31:21;99940.56;;;11.96;53.10
5812;BME280;2932;52.400;9.558;2023-03-26T19:33:57;99942.81;;;11.68;53.57
5812;BME280;2932;52.400;9.558;2023-03-26T19:36:25;99939.09;;;11.80;53.44